sensor_id;sensor_type;location;lat;lon;timestamp;P1;durP1;ratioP1;P2;durP2;ratioP2
53389;SDS011;39288;42.970;1.524;2022-08-06T00:00:12;13.53;;;3.03;;
53389;SDS011;39288;42.970;1.524;2022-08-06T00:01:12;6.77;;;2.30;;
53389;SDS011;39288;42.970;1.524;2022-08-06T00:02:13;5.50;;;2.07;;
53389;SDS011;39288;42.970;1.524;2022-08-06T00:03:13;7.23;;;2.30;;
53389;SDS011;39288;42.970;1.524;2022-08-06T00:04:14;11.10;;;2.70;;
53389;SDS011;39288;42.970;1.524;2022-08-06T00:05:14;6.90;;;1.90;;
53389;SDS011;39288;42.970;1.524;2022-08-06T00:06:15;7.03;;;1.97;;
53389;SDS011;39288;42.970;1.524;2022-08-06T00:07:16;6.03;;;1.93;;
53389;SDS011;39288;42.970;1.524;2022-08-06T00:08:16;6.07;;;1.88;;
53389;SDS011;39288;42.970;1.524;2022-08-06T00:09:17;6.85;;;1.98;;
53389;SDS011;39288;42.970;1.524;2022-08-06T00:10:18;11.40;;;2.53;;
53389;SDS011;39288;42.970;1.524;2022-08-06T00:11:18;8.57;;;2.30;;
53389;SDS011;39288;42.970;1.524;2022-08-06T00:12:19;6.50;;;1.63;;
53389;SDS011;39288;42.970;1.524;2022-08-06T00:13:19;6.97;;;2.43;;
53389;SDS011;39288;42.970;1.524;2022-08-06T00:14:20;10.93;;;2.67;;
53389;SDS011;39288;42.970;1.524;2022-08-06T00:15:20;9.53;;;2.03;;
53389;SDS011;39288;42.970;1.524;2022-08-06T00:16:21;6.67;;;2.40;;
53389;SDS011;39288;42.970;1.524;2022-08-06T00:17:21;5.40;;;1.93;;
53389;SDS011;39288;42.970;1.524;2022-08-06T00:18:23;6.75;;;1.73;;
53389;SDS011;39288;42.970;1.524;2022-08-06T00:19:23;8.77;;;2.53;;
53389;SDS011;39288;42.970;1.524;2022-08-06T00:20:24;8.43;;;2.50;;
53389;SDS011;39288;42.970;1.524;2022-08-06T00:21:24;9.97;;;2.30;;
53389;SDS011;39288;42.970;1.524;2022-08-06T00:22:25;4.70;;;2.00;;
53389;SDS011;39288;42.970;1.524;2022-08-06T00:23:26;9.40;;;2.00;;
53389;SDS011;39288;42.970;1.524;2022-08-06T00:24:26;10.83;;;2.50;;
53389;SDS011;39288;42.970;1.524;2022-08-06T00:25:27;6.75;;;2.20;;
53389;SDS011;39288;42.970;1.524;2022-08-06T00:26:28;9.77;;;2.03;;
53389;SDS011;39288;42.970;1.524;2022-08-06T00:27:29;9.60;;;2.50;;
53389;SDS011;39288;42.970;1.524;2022-08-06T00:28:29;7.50;;;2.23;;
53389;SDS011;39288;42.970;1.524;2022-08-06T00:29:30;10.07;;;2.33;;
53389;SDS011;39288;42.970;1.524;2022-08-06T00:30:30;12.97;;;2.57;;
53389;SDS011;39288;42.970;1.524;2022-08-06T00:31:31;6.97;;;1.93;;
53389;SDS011;39288;42.970;1.524;2022-08-06T00:32:32;4.55;;;1.90;;
53389;SDS011;39288;42.970;1.524;2022-08-06T00:33:33;7.97;;;2.10;;
53389;SDS011;39288;42.970;1.524;2022-08-06T00:34:34;8.98;;;2.03;;
53389;SDS011;39288;42.970;1.524;2022-08-06T00:35:35;5.93;;;1.97;;
53389;SDS011;39288;42.970;1.524;2022-08-06T00:36:35;6.97;;;2.37;;
53389;SDS011;39288;42.970;1.524;2022-08-06T00:37:36;6.77;;;1.83;;
53389;SDS011;39288;42.970;1.524;2022-08-06T00:38:36;8.47;;;2.10;;
53389;SDS011;39288;42.970;1.524;2022-08-06T00:39:37;9.87;;;2.60;;
53389;SDS011;39288;42.970;1.524;2022-08-06T00:40:37;7.67;;;2.10;;
53389;SDS011;39288;42.970;1.524;2022-08-06T00:41:38;6.43;;;2.20;;
53389;SDS011;39288;42.970;1.524;2022-08-06T00:42:39;7.87;;;2.07;;
53389;SDS011;39288;42.970;1.524;2022-08-06T00:43:40;6.53;;;2.03;;
53389;SDS011;39288;42.970;1.524;2022-08-06T00:44:42;8.00;;;2.03;;
53389;SDS011;39288;42.970;1.524;2022-08-06T00:45:43;8.80;;;2.37;;
53389;SDS011;39288;42.970;1.524;2022-08-06T00:46:43;7.90;;;2.13;;
53389;SDS011;39288;42.970;1.524;2022-08-06T00:47:44;8.47;;;2.23;;
53389;SDS011;39288;42.970;1.524;2022-08-06T00:48:44;6.73;;;2.53;;
53389;SDS011;39288;42.970;1.524;2022-08-06T00:49:45;16.10;;;2.47;;
53389;SDS011;39288;42.970;1.524;2022-08-06T00:50:45;7.57;;;2.20;;
53389;SDS011;39288;42.970;1.524;2022-08-06T00:51:46;5.53;;;1.80;;
53389;SDS011;39288;42.970;1.524;2022-08-06T00:52:46;7.27;;;2.00;;
53389;SDS011;39288;42.970;1.524;2022-08-06T00:53:46;5.57;;;2.07;;
53389;SDS011;39288;42.970;1.524;2022-08-06T00:54:47;8.43;;;2.17;;
53389;SDS011;39288;42.970;1.524;2022-08-06T00:55:48;7.43;;;2.23;;
53389;SDS011;39288;42.970;1.524;2022-08-06T00:56:48;7.63;;;2.17;;
53389;SDS011;39288;42.970;1.524;2022-08-06T00:57:49;10.50;;;2.50;;
53389;SDS011;39288;42.970;1.524;2022-08-06T00:58:49;12.13;;;2.40;;
53389;SDS011;39288;42.970;1.524;2022-08-06T00:59:49;10.10;;;2.77;;
53389;SDS011;39288;42.970;1.524;2022-08-06T01:00:50;10.00;;;2.40;;
53389;SDS011;39288;42.970;1.524;2022-08-06T01:01:50;7.50;;;2.43;;
53389;SDS011;39288;42.970;1.524;2022-08-06T01:02:51;6.53;;;2.20;;
53389;SDS011;39288;42.970;1.524;2022-08-06T01:03:51;4.67;;;2.00;;
53389;SDS011;39288;42.970;1.524;2022-08-06T01:04:52;6.00;;;1.77;;
53389;SDS011;39288;42.970;1.524;2022-08-06T01:05:53;8.03;;;1.90;;
53389;SDS011;39288;42.970;1.524;2022-08-06T01:06:54;7.72;;;2.22;;
53389;SDS011;39288;42.970;1.524;2022-08-06T01:07:54;6.07;;;2.00;;
53389;SDS011;39288;42.970;1.524;2022-08-06T01:08:55;8.47;;;2.20;;
53389;SDS011;39288;42.970;1.524;2022-08-06T01:09:56;7.63;;;2.40;;
53389;SDS011;39288;42.970;1.524;2022-08-06T01:10:56;8.50;;;2.10;;
53389;SDS011;39288;42.970;1.524;2022-08-06T01:11:57;6.97;;;2.43;;
53389;SDS011;39288;42.970;1.524;2022-08-06T01:12:57;7.43;;;2.10;;
53389;SDS011;39288;42.970;1.524;2022-08-06T01:13:58;8.33;;;2.43;;
53389;SDS011;39288;42.970;1.524;2022-08-06T01:14:58;4.90;;;1.63;;
53389;SDS011;39288;42.970;1.524;2022-08-06T01:16:46;8.13;;;2.13;;
53389;SDS011;39288;42.970;1.524;2022-08-06T01:17:42;11.77;;;2.53;;
53389;SDS011;39288;42.970;1.524;2022-08-06T01:21:49;7.25;;;2.67;;
53389;SDS011;39288;42.970;1.524;2022-08-06T01:23:02;11.38;;;2.95;;
53389;SDS011;39288;42.970;1.524;2022-08-06T01:28:20;11.85;;;2.65;;
53389;SDS011;39288;42.970;1.524;2022-08-06T01:29:25;8.13;;;2.28;;
53389;SDS011;39288;42.970;1.524;2022-08-06T01:30:37;7.50;;;2.13;;
53389;SDS011;39288;42.970;1.524;2022-08-06T01:31:47;10.32;;;2.50;;
53389;SDS011;39288;42.970;1.524;2022-08-06T01:32:55;5.18;;;2.20;;
53389;SDS011;39288;42.970;1.524;2022-08-06T01:34:07;6.50;;;2.07;;
53389;SDS011;39288;42.970;1.524;2022-08-06T01:35:12;8.73;;;2.50;;
53389;SDS011;39288;42.970;1.524;2022-08-06T01:36:19;9.43;;;2.55;;
53389;SDS011;39288;42.970;1.524;2022-08-06T01:38:53;10.35;;;2.47;;
53389;SDS011;39288;42.970;1.524;2022-08-06T01:39:57;7.03;;;2.90;;
53389;SDS011;39288;42.970;1.524;2022-08-06T01:41:00;7.68;;;2.15;;
53389;SDS011;39288;42.970;1.524;2022-08-06T01:42:07;11.15;;;2.88;;
53389;SDS011;39288;42.970;1.524;2022-08-06T01:44:10;11.90;;;2.95;;
53389;SDS011;39288;42.970;1.524;2022-08-06T01:45:13;12.07;;;2.67;;
53389;SDS011;39288;42.970;1.524;2022-08-06T01:46:15;6.38;;;2.10;;
53389;SDS011;39288;42.970;1.524;2022-08-06T01:47:17;8.73;;;2.53;;
53389;SDS011;39288;42.970;1.524;2022-08-06T01:48:19;7.85;;;2.67;;
53389;SDS011;39288;42.970;1.524;2022-08-06T01:49:24;11.65;;;3.10;;
53389;SDS011;39288;42.970;1.524;2022-08-06T01:50:28;8.75;;;2.50;;
53389;SDS011;39288;42.970;1.524;2022-08-06T01:51:32;9.48;;;2.33;;
53389;SDS011;39288;42.970;1.524;2022-08-06T01:52:35;9.85;;;2.50;;
53389;SDS011;39288;42.970;1.524;2022-08-06T01:53:37;8.82;;;2.45;;
53389;SDS011;39288;42.970;1.524;2022-08-06T01:54:40;11.23;;;2.55;;
53389;SDS011;39288;42.970;1.524;2022-08-06T01:55:43;9.90;;;2.50;;
53389;SDS011;39288;42.970;1.524;2022-08-06T01:56:46;9.77;;;2.80;;
53389;SDS011;39288;42.970;1.524;2022-08-06T01:57:53;7.80;;;2.50;;
53389;SDS011;39288;42.970;1.524;2022-08-06T01:58:55;11.02;;;2.47;;
53389;SDS011;39288;42.970;1.524;2022-08-06T01:59:57;8.57;;;2.00;;
53389;SDS011;39288;42.970;1.524;2022-08-06T02:00:58;10.63;;;2.50;;
53389;SDS011;39288;42.970;1.524;2022-08-06T02:02:02;7.20;;;2.17;;
53389;SDS011;39288;42.970;1.524;2022-08-06T02:03:09;6.45;;;2.30;;
53389;SDS011;39288;42.970;1.524;2022-08-06T02:04:13;10.05;;;2.88;;
53389;SDS011;39288;42.970;1.524;2022-08-06T02:05:17;8.45;;;2.22;;
53389;SDS011;39288;42.970;1.524;2022-08-06T02:06:23;8.40;;;2.28;;
53389;SDS011;39288;42.970;1.524;2022-08-06T02:07:27;9.90;;;2.42;;
53389;SDS011;39288;42.970;1.524;2022-08-06T02:08:32;6.88;;;2.13;;
53389;SDS011;39288;42.970;1.524;2022-08-06T02:09:34;10.13;;;2.45;;
53389;SDS011;39288;42.970;1.524;2022-08-06T02:10:38;9.00;;;2.45;;
53389;SDS011;39288;42.970;1.524;2022-08-06T02:11:39;9.40;;;2.88;;
53389;SDS011;39288;42.970;1.524;2022-08-06T02:12:41;9.38;;;2.15;;
53389;SDS011;39288;42.970;1.524;2022-08-06T02:13:44;7.28;;;2.40;;
53389;SDS011;39288;42.970;1.524;2022-08-06T02:14:47;8.38;;;2.50;;
53389;SDS011;39288;42.970;1.524;2022-08-06T02:15:52;6.90;;;2.63;;
53389;SDS011;39288;42.970;1.524;2022-08-06T02:16:53;6.97;;;2.30;;
53389;SDS011;39288;42.970;1.524;2022-08-06T02:17:58;10.98;;;2.55;;
53389;SDS011;39288;42.970;1.524;2022-08-06T02:19:02;7.13;;;2.00;;
53389;SDS011;39288;42.970;1.524;2022-08-06T02:20:04;10.98;;;3.30;;
53389;SDS011;39288;42.970;1.524;2022-08-06T02:22:08;8.50;;;2.25;;
53389;SDS011;39288;42.970;1.524;2022-08-06T02:23:13;7.43;;;2.40;;
53389;SDS011;39288;42.970;1.524;2022-08-06T02:24:16;6.28;;;2.15;;
53389;SDS011;39288;42.970;1.524;2022-08-06T02:25:18;5.68;;;2.00;;
53389;SDS011;39288;42.970;1.524;2022-08-06T02:26:18;9.93;;;2.37;;
53389;SDS011;39288;42.970;1.524;2022-08-06T02:27:20;9.38;;;2.47;;
53389;SDS011;39288;42.970;1.524;2022-08-06T02:28:22;6.53;;;2.47;;
53389;SDS011;39288;42.970;1.524;2022-08-06T02:29:24;6.68;;;2.05;;
53389;SDS011;39288;42.970;1.524;2022-08-06T02:30:29;9.05;;;2.65;;
53389;SDS011;39288;42.970;1.524;2022-08-06T02:31:33;9.75;;;2.15;;
53389;SDS011;39288;42.970;1.524;2022-08-06T02:32:33;6.23;;;2.20;;
53389;SDS011;39288;42.970;1.524;2022-08-06T02:33:34;13.37;;;2.83;;
53389;SDS011;39288;42.970;1.524;2022-08-06T02:34:35;8.23;;;2.47;;
53389;SDS011;39288;42.970;1.524;2022-08-06T02:35:47;10.13;;;2.90;;
53389;SDS011;39288;42.970;1.524;2022-08-06T02:36:52;6.45;;;2.38;;
53389;SDS011;39288;42.970;1.524;2022-08-06T02:38:00;10.60;;;2.35;;
53389;SDS011;39288;42.970;1.524;2022-08-06T02:39:21;14.30;;;2.88;;
53389;SDS011;39288;42.970;1.524;2022-08-06T02:40:33;9.30;;;2.35;;
53389;SDS011;39288;42.970;1.524;2022-08-06T02:42:45;7.72;;;2.20;;
53389;SDS011;39288;42.970;1.524;2022-08-06T02:43:58;10.60;;;2.35;;
53389;SDS011;39288;42.970;1.524;2022-08-06T02:46:11;6.95;;;2.42;;
53389;SDS011;39288;42.970;1.524;2022-08-06T02:48:22;11.02;;;3.03;;
53389;SDS011;39288;42.970;1.524;2022-08-06T02:49:27;8.45;;;2.28;;
53389;SDS011;39288;42.970;1.524;2022-08-06T02:50:30;7.15;;;2.60;;
53389;SDS011;39288;42.970;1.524;2022-08-06T02:51:34;10.02;;;2.47;;
53389;SDS011;39288;42.970;1.524;2022-08-06T02:52:46;12.55;;;3.00;;
53389;SDS011;39288;42.970;1.524;2022-08-06T02:55:18;7.90;;;2.45;;
53389;SDS011;39288;42.970;1.524;2022-08-06T02:56:20;7.35;;;2.33;;
53389;SDS011;39288;42.970;1.524;2022-08-06T02:57:30;8.05;;;2.30;;
53389;SDS011;39288;42.970;1.524;2022-08-06T02:58:37;7.22;;;2.35;;
53389;SDS011;39288;42.970;1.524;2022-08-06T02:59:42;5.97;;;2.00;;
53389;SDS011;39288;42.970;1.524;2022-08-06T03:00:46;9.98;;;2.40;;
53389;SDS011;39288;42.970;1.524;2022-08-06T03:01:51;8.85;;;2.90;;
53389;SDS011;39288;42.970;1.524;2022-08-06T03:02:55;9.75;;;2.97;;
53389;SDS011;39288;42.970;1.524;2022-08-06T03:03:58;6.65;;;2.30;;
53389;SDS011;39288;42.970;1.524;2022-08-06T03:05:00;12.43;;;2.50;;
53389;SDS011;39288;42.970;1.524;2022-08-06T03:07:04;14.07;;;2.60;;
53389;SDS011;39288;42.970;1.524;2022-08-06T03:08:09;8.52;;;2.20;;
53389;SDS011;39288;42.970;1.524;2022-08-06T03:10:11;6.93;;;2.67;;
53389;SDS011;39288;42.970;1.524;2022-08-06T03:11:12;11.07;;;2.80;;
53389;SDS011;39288;42.970;1.524;2022-08-06T03:13:15;8.52;;;2.22;;
53389;SDS011;39288;42.970;1.524;2022-08-06T03:14:17;10.10;;;2.33;;
53389;SDS011;39288;42.970;1.524;2022-08-06T03:15:18;10.35;;;2.50;;
53389;SDS011;39288;42.970;1.524;2022-08-06T03:16:19;10.43;;;2.63;;
53389;SDS011;39288;42.970;1.524;2022-08-06T03:17:20;9.60;;;2.65;;
53389;SDS011;39288;42.970;1.524;2022-08-06T03:18:21;18.73;;;3.53;;
53389;SDS011;39288;42.970;1.524;2022-08-06T03:19:22;10.50;;;2.53;;
53389;SDS011;39288;42.970;1.524;2022-08-06T03:20:23;8.02;;;2.30;;
53389;SDS011;39288;42.970;1.524;2022-08-06T03:21:23;9.40;;;2.57;;
53389;SDS011;39288;42.970;1.524;2022-08-06T03:22:24;5.85;;;2.13;;
53389;SDS011;39288;42.970;1.524;2022-08-06T03:23:26;9.90;;;2.70;;
53389;SDS011;39288;42.970;1.524;2022-08-06T03:24:27;11.00;;;3.30;;
53389;SDS011;39288;42.970;1.524;2022-08-06T03:25:28;6.63;;;2.10;;
53389;SDS011;39288;42.970;1.524;2022-08-06T03:26:29;11.55;;;2.60;;
53389;SDS011;39288;42.970;1.524;2022-08-06T03:28:32;8.27;;;2.50;;
53389;SDS011;39288;42.970;1.524;2022-08-06T03:29:34;10.13;;;2.30;;
53389;SDS011;39288;42.970;1.524;2022-08-06T03:30:34;6.27;;;2.03;;
53389;SDS011;39288;42.970;1.524;2022-08-06T03:31:35;9.52;;;2.80;;
53389;SDS011;39288;42.970;1.524;2022-08-06T03:32:36;13.50;;;2.80;;
53389;SDS011;39288;42.970;1.524;2022-08-06T03:33:37;10.20;;;2.80;;
53389;SDS011;39288;42.970;1.524;2022-08-06T03:34:38;8.87;;;2.70;;
53389;SDS011;39288;42.970;1.524;2022-08-06T03:35:38;11.83;;;2.90;;
53389;SDS011;39288;42.970;1.524;2022-08-06T03:36:39;9.83;;;2.73;;
53389;SDS011;39288;42.970;1.524;2022-08-06T03:37:40;11.73;;;2.70;;
53389;SDS011;39288;42.970;1.524;2022-08-06T03:38:43;9.65;;;2.67;;
53389;SDS011;39288;42.970;1.524;2022-08-06T03:39:47;9.75;;;3.17;;
53389;SDS011;39288;42.970;1.524;2022-08-06T03:40:48;9.23;;;2.88;;
53389;SDS011;39288;42.970;1.524;2022-08-06T03:41:49;10.15;;;2.90;;
53389;SDS011;39288;42.970;1.524;2022-08-06T03:42:50;10.32;;;2.85;;
53389;SDS011;39288;42.970;1.524;2022-08-06T03:43:51;6.10;;;2.10;;
53389;SDS011;39288;42.970;1.524;2022-08-06T03:44:52;10.53;;;3.20;;
53389;SDS011;39288;42.970;1.524;2022-08-06T03:45:53;10.23;;;2.23;;
53389;SDS011;39288;42.970;1.524;2022-08-06T03:46:58;12.43;;;3.08;;
53389;SDS011;39288;42.970;1.524;2022-08-06T03:48:04;12.38;;;2.85;;
53389;SDS011;39288;42.970;1.524;2022-08-06T03:49:08;10.18;;;2.63;;
53389;SDS011;39288;42.970;1.524;2022-08-06T03:50:14;8.07;;;2.40;;
53389;SDS011;39288;42.970;1.524;2022-08-06T03:51:16;16.38;;;2.63;;
53389;SDS011;39288;42.970;1.524;2022-08-06T03:52:21;8.02;;;2.67;;
53389;SDS011;39288;42.970;1.524;2022-08-06T03:53:25;13.07;;;3.00;;
53389;SDS011;39288;42.970;1.524;2022-08-06T03:54:28;9.90;;;2.95;;
53389;SDS011;39288;42.970;1.524;2022-08-06T03:55:33;8.18;;;2.92;;
53389;SDS011;39288;42.970;1.524;2022-08-06T03:56:35;9.50;;;3.05;;
53389;SDS011;39288;42.970;1.524;2022-08-06T03:57:41;9.18;;;2.58;;
53389;SDS011;39288;42.970;1.524;2022-08-06T03:58:44;12.80;;;2.80;;
53389;SDS011;39288;42.970;1.524;2022-08-06T04:00:58;12.15;;;3.22;;
53389;SDS011;39288;42.970;1.524;2022-08-06T04:02:01;8.27;;;2.50;;
53389;SDS011;39288;42.970;1.524;2022-08-06T04:03:03;10.05;;;2.95;;
53389;SDS011;39288;42.970;1.524;2022-08-06T04:04:04;6.70;;;2.20;;
53389;SDS011;39288;42.970;1.524;2022-08-06T04:05:05;9.10;;;2.60;;
53389;SDS011;39288;42.970;1.524;2022-08-06T04:06:07;8.07;;;2.70;;
53389;SDS011;39288;42.970;1.524;2022-08-06T04:07:15;14.15;;;3.40;;
53389;SDS011;39288;42.970;1.524;2022-08-06T04:08:16;11.70;;;3.40;;
53389;SDS011;39288;42.970;1.524;2022-08-06T04:09:16;7.07;;;2.60;;
53389;SDS011;39288;42.970;1.524;2022-08-06T04:10:19;7.82;;;3.00;;
53389;SDS011;39288;42.970;1.524;2022-08-06T04:11:19;9.95;;;2.75;;
53389;SDS011;39288;42.970;1.524;2022-08-06T04:12:21;11.18;;;3.10;;
53389;SDS011;39288;42.970;1.524;2022-08-06T04:13:22;10.68;;;3.08;;
53389;SDS011;39288;42.970;1.524;2022-08-06T04:14:23;9.02;;;3.00;;
53389;SDS011;39288;42.970;1.524;2022-08-06T04:15:24;8.83;;;2.43;;
53389;SDS011;39288;42.970;1.524;2022-08-06T04:16:25;10.60;;;2.60;;
53389;SDS011;39288;42.970;1.524;2022-08-06T04:17:26;10.10;;;2.80;;
53389;SDS011;39288;42.970;1.524;2022-08-06T04:18:27;7.47;;;2.25;;
53389;SDS011;39288;42.970;1.524;2022-08-06T04:19:30;8.93;;;2.65;;
53389;SDS011;39288;42.970;1.524;2022-08-06T04:20:31;10.77;;;2.92;;
53389;SDS011;39288;42.970;1.524;2022-08-06T04:21:32;8.48;;;2.47;;
53389;SDS011;39288;42.970;1.524;2022-08-06T04:22:33;5.03;;;2.30;;
53389;SDS011;39288;42.970;1.524;2022-08-06T04:23:34;7.23;;;2.70;;
53389;SDS011;39288;42.970;1.524;2022-08-06T04:24:37;9.38;;;2.53;;
53389;SDS011;39288;42.970;1.524;2022-08-06T04:25:42;8.07;;;2.83;;
53389;SDS011;39288;42.970;1.524;2022-08-06T04:26:45;10.10;;;3.22;;
53389;SDS011;39288;42.970;1.524;2022-08-06T04:27:49;6.25;;;2.60;;
53389;SDS011;39288;42.970;1.524;2022-08-06T04:28:51;7.87;;;2.70;;
53389;SDS011;39288;42.970;1.524;2022-08-06T04:29:53;16.83;;;2.70;;
53389;SDS011;39288;42.970;1.524;2022-08-06T04:30:55;7.15;;;2.60;;
53389;SDS011;39288;42.970;1.524;2022-08-06T04:31:57;7.20;;;2.65;;
53389;SDS011;39288;42.970;1.524;2022-08-06T04:32:58;7.60;;;2.72;;
53389;SDS011;39288;42.970;1.524;2022-08-06T04:34:00;9.35;;;2.75;;
53389;SDS011;39288;42.970;1.524;2022-08-06T04:35:02;7.63;;;2.90;;
53389;SDS011;39288;42.970;1.524;2022-08-06T04:36:05;7.55;;;2.60;;
53389;SDS011;39288;42.970;1.524;2022-08-06T04:37:06;8.50;;;2.58;;
53389;SDS011;39288;42.970;1.524;2022-08-06T04:38:07;9.30;;;3.00;;
53389;SDS011;39288;42.970;1.524;2022-08-06T04:40:09;8.98;;;2.78;;
53389;SDS011;39288;42.970;1.524;2022-08-06T04:42:11;11.82;;;3.10;;
53389;SDS011;39288;42.970;1.524;2022-08-06T04:43:11;9.47;;;2.80;;
53389;SDS011;39288;42.970;1.524;2022-08-06T04:44:12;8.35;;;2.63;;
53389;SDS011;39288;42.970;1.524;2022-08-06T04:45:13;8.03;;;2.60;;
53389;SDS011;39288;42.970;1.524;2022-08-06T04:46:14;8.87;;;2.90;;
53389;SDS011;39288;42.970;1.524;2022-08-06T04:47:14;6.03;;;2.50;;
53389;SDS011;39288;42.970;1.524;2022-08-06T04:48:15;19.90;;;3.27;;
53389;SDS011;39288;42.970;1.524;2022-08-06T04:49:16;10.90;;;2.80;;
53389;SDS011;39288;42.970;1.524;2022-08-06T04:50:17;9.55;;;3.20;;
53389;SDS011;39288;42.970;1.524;2022-08-06T04:51:17;15.60;;;3.80;;
53389;SDS011;39288;42.970;1.524;2022-08-06T04:52:25;6.30;;;2.60;;
53389;SDS011;39288;42.970;1.524;2022-08-06T04:53:26;8.10;;;3.00;;
53389;SDS011;39288;42.970;1.524;2022-08-06T04:54:26;12.50;;;3.03;;
53389;SDS011;39288;42.970;1.524;2022-08-06T04:55:27;6.47;;;3.03;;
53389;SDS011;39288;42.970;1.524;2022-08-06T04:56:27;9.43;;;2.53;;
53389;SDS011;39288;42.970;1.524;2022-08-06T04:57:28;9.23;;;2.80;;
53389;SDS011;39288;42.970;1.524;2022-08-06T04:58:28;9.80;;;3.07;;
53389;SDS011;39288;42.970;1.524;2022-08-06T04:59:29;9.50;;;2.57;;
53389;SDS011;39288;42.970;1.524;2022-08-06T05:00:34;10.33;;;3.20;;
53389;SDS011;39288;42.970;1.524;2022-08-06T05:01:37;8.05;;;2.97;;
53389;SDS011;39288;42.970;1.524;2022-08-06T05:02:38;8.77;;;2.87;;
53389;SDS011;39288;42.970;1.524;2022-08-06T05:03:38;6.97;;;2.57;;
53389;SDS011;39288;42.970;1.524;2022-08-06T05:04:39;6.37;;;2.73;;
53389;SDS011;39288;42.970;1.524;2022-08-06T05:05:45;7.32;;;2.70;;
53389;SDS011;39288;42.970;1.524;2022-08-06T05:06:55;6.28;;;2.78;;
53389;SDS011;39288;42.970;1.524;2022-08-06T05:08:00;11.93;;;2.90;;
53389;SDS011;39288;42.970;1.524;2022-08-06T05:09:03;8.13;;;3.00;;
53389;SDS011;39288;42.970;1.524;2022-08-06T05:10:06;8.68;;;2.45;;
53389;SDS011;39288;42.970;1.524;2022-08-06T05:11:12;10.65;;;3.30;;
53389;SDS011;39288;42.970;1.524;2022-08-06T05:12:26;11.82;;;2.95;;
53389;SDS011;39288;42.970;1.524;2022-08-06T05:13:38;7.20;;;3.20;;
53389;SDS011;39288;42.970;1.524;2022-08-06T05:14:40;11.27;;;2.70;;
53389;SDS011;39288;42.970;1.524;2022-08-06T05:15:42;8.02;;;3.05;;
53389;SDS011;39288;42.970;1.524;2022-08-06T05:16:44;10.25;;;3.00;;
53389;SDS011;39288;42.970;1.524;2022-08-06T05:17:48;8.85;;;3.15;;
53389;SDS011;39288;42.970;1.524;2022-08-06T05:19:01;16.65;;;9.55;;
53389;SDS011;39288;42.970;1.524;2022-08-06T05:20:11;68.05;;;54.95;;
53389;SDS011;39288;42.970;1.524;2022-08-06T05:21:14;65.97;;;51.80;;
53389;SDS011;39288;42.970;1.524;2022-08-06T05:22:18;29.15;;;20.20;;
53389;SDS011;39288;42.970;1.524;2022-08-06T05:24:02;25.58;;;16.83;;
53389;SDS011;39288;42.970;1.524;2022-08-06T05:24:48;15.68;;;9.25;;
53389;SDS011;39288;42.970;1.524;2022-08-06T05:25:55;14.38;;;7.43;;
53389;SDS011;39288;42.970;1.524;2022-08-06T05:26:56;9.57;;;4.43;;
53389;SDS011;39288;42.970;1.524;2022-08-06T05:27:56;9.27;;;3.70;;
53389;SDS011;39288;42.970;1.524;2022-08-06T05:28:57;9.57;;;3.83;;
53389;SDS011;39288;42.970;1.524;2022-08-06T05:29:57;12.40;;;3.60;;
53389;SDS011;39288;42.970;1.524;2022-08-06T05:30:58;9.70;;;3.53;;
53389;SDS011;39288;42.970;1.524;2022-08-06T05:31:59;8.80;;;3.80;;
53389;SDS011;39288;42.970;1.524;2022-08-06T05:32:59;7.60;;;3.50;;
53389;SDS011;39288;42.970;1.524;2022-08-06T05:34:01;5.60;;;3.67;;
53389;SDS011;39288;42.970;1.524;2022-08-06T05:35:02;10.05;;;4.70;;
53389;SDS011;39288;42.970;1.524;2022-08-06T05:36:04;12.03;;;4.30;;
53389;SDS011;39288;42.970;1.524;2022-08-06T05:37:06;8.80;;;4.05;;
53389;SDS011;39288;42.970;1.524;2022-08-06T05:38:06;6.93;;;4.60;;
53389;SDS011;39288;42.970;1.524;2022-08-06T05:39:08;7.53;;;3.38;;
53389;SDS011;39288;42.970;1.524;2022-08-06T05:40:09;8.80;;;3.50;;
53389;SDS011;39288;42.970;1.524;2022-08-06T05:41:10;8.20;;;3.87;;
53389;SDS011;39288;42.970;1.524;2022-08-06T05:42:11;12.38;;;5.05;;
53389;SDS011;39288;42.970;1.524;2022-08-06T05:43:11;11.87;;;8.20;;
53389;SDS011;39288;42.970;1.524;2022-08-06T05:44:12;12.80;;;8.30;;
53389;SDS011;39288;42.970;1.524;2022-08-06T05:45:12;19.47;;;8.10;;
53389;SDS011;39288;42.970;1.524;2022-08-06T05:46:19;13.45;;;8.10;;
53389;SDS011;39288;42.970;1.524;2022-08-06T05:47:22;15.55;;;8.45;;
53389;SDS011;39288;42.970;1.524;2022-08-06T05:48:24;13.45;;;8.75;;
53389;SDS011;39288;42.970;1.524;2022-08-06T05:49:31;16.58;;;8.02;;
53389;SDS011;39288;42.970;1.524;2022-08-06T05:50:37;15.48;;;6.10;;
53389;SDS011;39288;42.970;1.524;2022-08-06T05:51:46;9.57;;;6.10;;
53389;SDS011;39288;42.970;1.524;2022-08-06T05:53:06;12.98;;;5.13;;
53389;SDS011;39288;42.970;1.524;2022-08-06T05:54:21;10.98;;;3.90;;
53389;SDS011;39288;42.970;1.524;2022-08-06T05:55:31;7.88;;;3.22;;
53389;SDS011;39288;42.970;1.524;2022-08-06T05:56:39;11.60;;;6.00;;
53389;SDS011;39288;42.970;1.524;2022-08-06T05:57:43;12.95;;;6.90;;
53389;SDS011;39288;42.970;1.524;2022-08-06T05:58:58;13.45;;;7.20;;
53389;SDS011;39288;42.970;1.524;2022-08-06T06:00:07;11.63;;;6.47;;
53389;SDS011;39288;42.970;1.524;2022-08-06T06:01:11;11.70;;;7.78;;
53389;SDS011;39288;42.970;1.524;2022-08-06T06:02:13;12.68;;;7.85;;
53389;SDS011;39288;42.970;1.524;2022-08-06T06:03:15;20.40;;;14.27;;
53389;SDS011;39288;42.970;1.524;2022-08-06T06:04:16;20.60;;;13.13;;
53389;SDS011;39288;42.970;1.524;2022-08-06T06:05:18;15.23;;;10.98;;
53389;SDS011;39288;42.970;1.524;2022-08-06T06:06:18;25.87;;;16.20;;
53389;SDS011;39288;42.970;1.524;2022-08-06T06:07:19;32.07;;;23.33;;
53389;SDS011;39288;42.970;1.524;2022-08-06T06:08:20;27.45;;;18.92;;
53389;SDS011;39288;42.970;1.524;2022-08-06T06:09:21;39.67;;;30.55;;
53389;SDS011;39288;42.970;1.524;2022-08-06T06:10:24;29.67;;;21.23;;
53389;SDS011;39288;42.970;1.524;2022-08-06T06:11:28;24.60;;;16.88;;
53389;SDS011;39288;42.970;1.524;2022-08-06T06:12:30;32.38;;;22.45;;
53389;SDS011;39288;42.970;1.524;2022-08-06T06:13:31;27.90;;;18.50;;
53389;SDS011;39288;42.970;1.524;2022-08-06T06:14:41;19.20;;;13.30;;
53389;SDS011;39288;42.970;1.524;2022-08-06T06:15:47;18.92;;;11.90;;
53389;SDS011;39288;42.970;1.524;2022-08-06T06:18:27;12.95;;;6.50;;
53389;SDS011;39288;42.970;1.524;2022-08-06T06:19:43;9.77;;;4.38;;
53389;SDS011;39288;42.970;1.524;2022-08-06T06:22:28;9.02;;;3.72;;
53389;SDS011;39288;42.970;1.524;2022-08-06T06:23:44;14.48;;;6.75;;
53389;SDS011;39288;42.970;1.524;2022-08-06T06:24:55;12.13;;;5.22;;
53389;SDS011;39288;42.970;1.524;2022-08-06T06:27:29;10.52;;;4.40;;
53389;SDS011;39288;42.970;1.524;2022-08-06T06:28:33;11.07;;;3.60;;
53389;SDS011;39288;42.970;1.524;2022-08-06T06:29:40;9.65;;;3.15;;
53389;SDS011;39288;42.970;1.524;2022-08-06T06:33:53;10.07;;;2.75;;
53389;SDS011;39288;42.970;1.524;2022-08-06T06:36:36;10.65;;;2.70;;
53389;SDS011;39288;42.970;1.524;2022-08-06T06:39:14;9.07;;;2.85;;
53389;SDS011;39288;42.970;1.524;2022-08-06T06:40:35;7.15;;;2.58;;
53389;SDS011;39288;42.970;1.524;2022-08-06T06:41:51;5.28;;;2.50;;
53389;SDS011;39288;42.970;1.524;2022-08-06T06:42:57;10.52;;;3.03;;
53389;SDS011;39288;42.970;1.524;2022-08-06T06:45:10;11.93;;;2.40;;
53389;SDS011;39288;42.970;1.524;2022-08-06T06:46:15;8.10;;;2.72;;
53389;SDS011;39288;42.970;1.524;2022-08-06T06:47:22;9.23;;;2.92;;
53389;SDS011;39288;42.970;1.524;2022-08-06T06:48:33;7.78;;;2.47;;
53389;SDS011;39288;42.970;1.524;2022-08-06T06:49:38;7.43;;;2.75;;
53389;SDS011;39288;42.970;1.524;2022-08-06T06:50:41;10.32;;;2.47;;
53389;SDS011;39288;42.970;1.524;2022-08-06T06:51:50;7.90;;;2.88;;
53389;SDS011;39288;42.970;1.524;2022-08-06T06:52:53;9.73;;;2.95;;
53389;SDS011;39288;42.970;1.524;2022-08-06T06:53:55;6.63;;;2.40;;